Mount Lawley Perth, Western Australia

11:21 AM AWST on October 21, 2014 (GMT +0800)
BlochTech Engineering, East Perth | Change Station
CLOSE
Current Station
Personal Weather Station
Location: East Perth, WESTERN AUSTRALIA
Elevation: 82 ft
Nearby Weather Stations

Elev 82 ft 31.95 °S, 115.87 °E | Updated 3 minutes ago

Partly Cloudy
Partly Cloudy
72.4 °F
Feels Like 77 °F
N
4.0
Wind Variable Wind from SE
Gusts 9.0 mph

Today
High -- | Low -- °F
--% Chance of Precip.
Yesterday
High -- | Low -- °F
Precip. -- in
5:30 AM 6:32 PM
Waning Crescent, 8% visible
Pressure 30.15 in
Visibility 6.2 miles
Clouds Few 3200 ft
Heat Index 77 °F
Dew Point 53 °F
Humidity 50%
Rainfall 0.00 in
Snow Depth Not available.
UV 11 out of 12
Pollen Not available.
Air Quality Not available.
Flu Activity Not available.
METAR YPPH 210300Z 12006KT 9999 FEW032 21/11 Q1021 NOSIG

More Conditions Fewer Conditions

Pressure 30.15 in
Visibility 6.2 miles
Clouds Few 3200 ft
Heat Index 77 °F
Dew Point 53 °F
Humidity 50%
Rainfall 0.00 in
Snow Depth Not available.
UV 11 out of 12
Pollen Not available.
Air Quality Not available.
Flu Activity Not available.
METAR YPPH 210300Z 12006KT 9999 FEW032 21/11 Q1021 NOSIG

More Conditions Fewer Conditions

10-Day Weather Forecast

Almanac

Astronomy

Oct. 21, 2014 Rise Set
Actual Time 5:30 AM AWST 6:32 PM AWST
Civil Twilight 5:05 AM AWST 6:57 PM AWST
Nautical Twilight 4:35 AM AWST 7:27 PM AWST
Astronomical Twilight 4:04 AM AWST 7:58 PM AWST
Moon 3:50 AM AWST 4:11 PM AWST
Length of Visible Light 13h 52m
Length of Day
13h 01m
Tomorrow will be 1m 52s longer.
Waning Crescent, 8% of the Moon is Illuminated
Oct 20
Waning Crescent
Oct 23
New
Oct 30
First Quarter
Nov 6
Full
Nov 14
Last Quarter

Yesterday's Extremes

Country Highs Country Lows

Community

WunderPhotos

Upload Photos

1,763,589 photos uploaded!

Nearby

Snow Depth

Not available.

Earthquake Activity

City Distance Mag. Time & Date
No recent earthquake activity has been reported nearby.
Minimum magnitude displayed is 2.5.

Coastal Water Temperatures

Place Temperature
No Stations Reporting

Nearby Weather Stations